sensor_id;sensor_type;location;lat;lon;timestamp;pressure;altitude;pressure_sealevel;temperature;humidity
36380;BME280;22411;53.016;18.632;2022-11-15T00:00:54;101009.09;;;4.88;100.00
36380;BME280;22411;53.016;18.632;2022-11-15T00:03:24;101004.88;;;4.87;100.00
36380;BME280;22411;53.016;18.632;2022-11-15T00:05:51;100996.19;;;4.89;100.00
36380;BME280;22411;53.016;18.632;2022-11-15T00:08:17;100998.84;;;4.88;100.00
36380;BME280;22411;53.016;18.632;2022-11-15T00:10:53;100995.25;;;4.92;100.00
36380;BME280;22411;53.016;18.632;2022-11-15T00:13:19;100985.06;;;4.90;100.00
36380;BME280;22411;53.016;18.632;2022-11-15T00:15:45;100992.69;;;4.92;100.00
36380;BME280;22411;53.016;18.632;2022-11-15T00:18:15;100993.28;;;4.98;100.00
36380;BME280;22411;53.016;18.632;2022-11-15T00:20:42;100985.00;;;4.92;100.00
36380;BME280;22411;53.016;18.632;2022-11-15T00:23:08;100984.09;;;4.93;100.00
36380;BME280;22411;53.016;18.632;2022-11-15T00:25:35;100982.50;;;4.90;100.00
36380;BME280;22411;53.016;18.632;2022-11-15T00:28:01;100978.34;;;4.86;100.00
36380;BME280;22411;53.016;18.632;2022-11-15T00:30:27;100984.25;;;4.88;100.00
36380;BME280;22411;53.016;18.632;2022-11-15T00:32:54;100975.63;;;4.91;100.00
36380;BME280;22411;53.016;18.632;2022-11-15T00:35:20;100985.16;;;4.87;100.00
36380;BME280;22411;53.016;18.632;2022-11-15T00:37:46;100972.91;;;4.94;100.00
36380;BME280;22411;53.016;18.632;2022-11-15T00:40:14;100980.56;;;4.95;100.00
36380;BME280;22411;53.016;18.632;2022-11-15T00:42:41;100982.25;;;4.96;100.00
36380;BME280;22411;53.016;18.632;2022-11-15T00:45:08;100982.50;;;4.90;100.00
36380;BME280;22411;53.016;18.632;2022-11-15T00:47:36;100975.81;;;4.85;100.00
36380;BME280;22411;53.016;18.632;2022-11-15T00:50:03;100968.13;;;4.85;100.00
36380;BME280;22411;53.016;18.632;2022-11-15T00:52:29;100957.06;;;4.83;100.00
36380;BME280;22411;53.016;18.632;2022-11-15T00:54:55;100962.09;;;4.86;100.00
36380;BME280;22411;53.016;18.632;2022-11-15T00:57:21;100968.31;;;4.80;100.00
36380;BME280;22411;53.016;18.632;2022-11-15T00:59:47;100960.72;;;4.77;100.00
36380;BME280;22411;53.016;18.632;2022-11-15T01:02:13;100958.06;;;4.79;100.00
36380;BME280;22411;53.016;18.632;2022-11-15T01:04:39;100960.72;;;4.77;100.00
36380;BME280;22411;53.016;18.632;2022-11-15T01:07:05;100947.97;;;4.74;100.00
36380;BME280;22411;53.016;18.632;2022-11-15T01:09:31;100939.13;;;4.59;100.00
36380;BME280;22411;53.016;18.632;2022-11-15T01:11:56;100942.56;;;4.58;100.00
36380;BME280;22411;53.016;18.632;2022-11-15T01:14:22;100944.13;;;4.62;100.00
36380;BME280;22411;53.016;18.632;2022-11-15T01:16:48;100932.03;;;4.66;100.00
36380;BME280;22411;53.016;18.632;2022-11-15T01:19:14;100931.06;;;4.68;100.00
36380;BME280;22411;53.016;18.632;2022-11-15T01:21:40;100928.63;;;4.65;100.00
36380;BME280;22411;53.016;18.632;2022-11-15T01:24:07;100923.41;;;4.67;100.00
36380;BME280;22411;53.016;18.632;2022-11-15T01:26:37;100915.72;;;4.67;100.00
36380;BME280;22411;53.016;18.632;2022-11-15T01:29:03;100908.00;;;4.67;100.00
36380;BME280;22411;53.016;18.632;2022-11-15T01:31:29;100911.59;;;4.63;100.00
36380;BME280;22411;53.016;18.632;2022-11-15T01:33:55;100904.72;;;4.63;100.00
36380;BME280;22411;53.016;18.632;2022-11-15T01:36:22;100904.91;;;4.59;100.00
36380;BME280;22411;53.016;18.632;2022-11-15T01:38:54;100899.53;;;4.65;100.00
36380;BME280;22411;53.016;18.632;2022-11-15T01:41:21;100902.13;;;4.65;100.00
36380;BME280;22411;53.016;18.632;2022-11-15T01:43:56;100899.56;;;4.63;100.00
36380;BME280;22411;53.016;18.632;2022-11-15T01:46:32;100893.59;;;4.63;100.00
36380;BME280;22411;53.016;18.632;2022-11-15T01:49:03;100896.19;;;4.63;100.00
36380;BME280;22411;53.016;18.632;2022-11-15T01:51:33;100892.09;;;4.57;100.00
36380;BME280;22411;53.016;18.632;2022-11-15T01:54:04;100878.44;;;4.57;100.00
36380;BME280;22411;53.016;18.632;2022-11-15T01:56:37;100881.06;;;4.55;100.00
36380;BME280;22411;53.016;18.632;2022-11-15T01:59:06;100882.63;;;4.59;100.00
36380;BME280;22411;53.016;18.632;2022-11-15T02:01:33;100873.38;;;4.55;100.00
36380;BME280;22411;53.016;18.632;2022-11-15T02:04:13;100871.06;;;4.47;100.00
36380;BME280;22411;53.016;18.632;2022-11-15T02:06:40;100867.56;;;4.50;100.00
36380;BME280;22411;53.016;18.632;2022-11-15T02:09:09;100861.53;;;4.51;100.00
36380;BME280;22411;53.016;18.632;2022-11-15T02:11:36;100854.91;;;4.45;100.00
36380;BME280;22411;53.016;18.632;2022-11-15T02:14:03;100843.81;;;4.45;100.00
36380;BME280;22411;53.016;18.632;2022-11-15T02:16:40;100852.44;;;4.42;100.00
36380;BME280;22411;53.016;18.632;2022-11-15T02:32:54;100842.75;;;4.51;100.00
36380;BME280;22411;53.016;18.632;2022-11-15T02:43:09;100839.19;;;4.53;100.00
36380;BME280;22411;53.016;18.632;2022-11-15T02:46:14;100843.47;;;4.54;100.00
36380;BME280;22411;53.016;18.632;2022-11-15T02:48:43;100837.59;;;4.51;100.00
36380;BME280;22411;53.016;18.632;2022-11-15T02:51:09;100840.84;;;4.56;100.00
36380;BME280;22411;53.016;18.632;2022-11-15T02:53:36;100838.25;;;4.56;100.00
36380;BME280;22411;53.016;18.632;2022-11-15T02:56:02;100841.56;;;4.59;100.00
36380;BME280;22411;53.016;18.632;2022-11-15T03:01:56;100838.84;;;4.62;100.00
36380;BME280;22411;53.016;18.632;2022-11-15T03:04:34;100832.16;;;4.58;100.00
36380;BME280;22411;53.016;18.632;2022-11-15T03:07:16;100821.84;;;4.60;100.00
36380;BME280;22411;53.016;18.632;2022-11-15T03:09:56;100819.16;;;4.63;100.00
36380;BME280;22411;53.016;18.632;2022-11-15T03:15:30;100814.16;;;4.60;100.00
36380;BME280;22411;53.016;18.632;2022-11-15T03:18:37;100824.34;;;4.61;100.00
36380;BME280;22411;53.016;18.632;2022-11-15T03:21:07;100820.88;;;4.62;100.00
36380;BME280;22411;53.016;18.632;2022-11-15T03:23:34;100814.84;;;4.63;100.00
36380;BME280;22411;53.016;18.632;2022-11-15T03:26:05;100810.44;;;4.67;100.00
36380;BME280;22411;53.016;18.632;2022-11-15T03:28:36;100812.28;;;4.63;100.00
36380;BME280;22411;53.016;18.632;2022-11-15T03:31:05;100816.66;;;4.61;100.00
36380;BME280;22411;53.016;18.632;2022-11-15T03:33:53;100807.22;;;4.62;100.00
36380;BME280;22411;53.016;18.632;2022-11-15T03:36:22;100808.88;;;4.63;100.00
36380;BME280;22411;53.016;18.632;2022-11-15T03:38:49;100809.72;;;4.63;100.00
36380;BME280;22411;53.016;18.632;2022-11-15T03:41:23;100798.56;;;4.64;100.00
36380;BME280;22411;53.016;18.632;2022-11-15T03:44:02;100806.97;;;4.68;100.00
36380;BME280;22411;53.016;18.632;2022-11-15T03:46:40;100797.59;;;4.67;100.00
36380;BME280;22411;53.016;18.632;2022-11-15T03:49:22;100801.06;;;4.66;100.00
36380;BME280;22411;53.016;18.632;2022-11-15T03:51:50;100804.59;;;4.63;100.00
36380;BME280;22411;53.016;18.632;2022-11-15T03:54:16;100801.91;;;4.66;100.00
36380;BME280;22411;53.016;18.632;2022-11-15T03:56:42;100796.78;;;4.66;100.00
36380;BME280;22411;53.016;18.632;2022-11-15T03:59:08;100792.47;;;4.67;100.00
36380;BME280;22411;53.016;18.632;2022-11-15T04:01:34;100789.97;;;4.65;100.00
36380;BME280;22411;53.016;18.632;2022-11-15T04:04:00;100785.50;;;4.70;100.00
36380;BME280;22411;53.016;18.632;2022-11-15T04:06:26;100790.63;;;4.70;100.00
36380;BME280;22411;53.016;18.632;2022-11-15T04:08:52;100783.69;;;4.72;100.00
36380;BME280;22411;53.016;18.632;2022-11-15T04:11:18;100778.44;;;4.76;100.00
36380;BME280;22411;53.016;18.632;2022-11-15T04:13:44;100779.19;;;4.78;100.00
36380;BME280;22411;53.016;18.632;2022-11-15T04:16:10;100770.75;;;4.76;100.00
36380;BME280;22411;53.016;18.632;2022-11-15T04:18:36;100770.75;;;4.76;100.00
36380;BME280;22411;53.016;18.632;2022-11-15T04:21:02;100772.50;;;4.73;100.00
36380;BME280;22411;53.016;18.632;2022-11-15T04:23:46;100774.22;;;4.75;100.00
36380;BME280;22411;53.016;18.632;2022-11-15T04:26:31;100766.25;;;4.81;100.00
36380;BME280;22411;53.016;18.632;2022-11-15T04:28:57;100762.25;;;4.73;100.00
36380;BME280;22411;53.016;18.632;2022-11-15T04:31:41;100765.53;;;4.77;100.00
36380;BME280;22411;53.016;18.632;2022-11-15T04:34:07;100761.16;;;4.79;100.00
36380;BME280;22411;53.016;18.632;2022-11-15T04:36:33;100761.47;;;4.71;100.00
36380;BME280;22411;53.016;18.632;2022-11-15T04:39:17;100758.25;;;4.66;100.00
36380;BME280;22411;53.016;18.632;2022-11-15T04:41:43;100759.16;;;4.65;100.00
36380;BME280;22411;53.016;18.632;2022-11-15T04:44:09;100754.69;;;4.70;100.00
36380;BME280;22411;53.016;18.632;2022-11-15T04:46:36;100751.31;;;4.68;100.00
36380;BME280;22411;53.016;18.632;2022-11-15T04:49:02;100754.59;;;4.72;100.00
36380;BME280;22411;53.016;18.632;2022-11-15T04:51:28;100749.53;;;4.70;100.00
36380;BME280;22411;53.016;18.632;2022-11-15T04:53:54;100751.09;;;4.75;100.00
36380;BME280;22411;53.016;18.632;2022-11-15T04:56:20;100743.50;;;4.71;100.00
36380;BME280;22411;53.016;18.632;2022-11-15T04:58:49;100739.91;;;4.76;100.00
36380;BME280;22411;53.016;18.632;2022-11-15T05:01:15;100742.50;;;4.76;100.00
36380;BME280;22411;53.016;18.632;2022-11-15T05:03:42;100735.53;;;4.78;100.00
36380;BME280;22411;53.016;18.632;2022-11-15T05:06:27;100731.31;;;4.77;100.00
36380;BME280;22411;53.016;18.632;2022-11-15T05:08:53;100737.59;;;4.69;100.00
36380;BME280;22411;53.016;18.632;2022-11-15T05:11:20;100730.75;;;4.70;100.00
36380;BME280;22411;53.016;18.632;2022-11-15T05:13:46;100734.81;;;4.74;100.00
36380;BME280;22411;53.016;18.632;2022-11-15T05:16:12;100728.94;;;4.72;100.00
36380;BME280;22411;53.016;18.632;2022-11-15T05:18:38;100730.66;;;4.71;100.00
36380;BME280;22411;53.016;18.632;2022-11-15T05:21:12;100724.13;;;4.64;100.00
36380;BME280;22411;53.016;18.632;2022-11-15T05:23:39;100722.41;;;4.63;100.00
36380;BME280;22411;53.016;18.632;2022-11-15T05:26:06;100721.53;;;4.64;100.00
36380;BME280;22411;53.016;18.632;2022-11-15T05:28:33;100721.41;;;4.67;100.00
36380;BME280;22411;53.016;18.632;2022-11-15T05:31:13;100719.63;;;4.69;100.00
36380;BME280;22411;53.016;18.632;2022-11-15T05:33:41;100720.38;;;4.71;100.00
36380;BME280;22411;53.016;18.632;2022-11-15T05:36:19;100719.63;;;4.69;100.00
36380;BME280;22411;53.016;18.632;2022-11-15T05:38:48;100721.34;;;4.69;100.00
36380;BME280;22411;53.016;18.632;2022-11-15T05:41:15;100720.50;;;4.68;100.00
36380;BME280;22411;53.016;18.632;2022-11-15T05:43:43;100716.28;;;4.67;100.00
36380;BME280;22411;53.016;18.632;2022-11-15T05:46:10;100709.53;;;4.65;100.00
36380;BME280;22411;53.016;18.632;2022-11-15T05:48:41;100716.34;;;4.66;100.00
36380;BME280;22411;53.016;18.632;2022-11-15T05:51:09;100717.34;;;4.62;100.00
36380;BME280;22411;53.016;18.632;2022-11-15T05:53:36;100717.28;;;4.63;100.00
36380;BME280;22411;53.016;18.632;2022-11-15T05:56:04;100721.34;;;4.69;100.00
36380;BME280;22411;53.016;18.632;2022-11-15T05:58:33;100717.91;;;4.70;100.00
36380;BME280;22411;53.016;18.632;2022-11-15T06:01:00;100717.72;;;4.75;100.00
36380;BME280;22411;53.016;18.632;2022-11-15T06:03:26;100715.97;;;4.75;100.00
36380;BME280;22411;53.016;18.632;2022-11-15T06:05:53;100717.00;;;4.71;100.00
36380;BME280;22411;53.016;18.632;2022-11-15T06:08:19;100721.22;;;4.72;100.00
36380;BME280;22411;53.016;18.632;2022-11-15T06:10:45;100723.72;;;4.73;100.00
36380;BME280;22411;53.016;18.632;2022-11-15T06:13:11;100722.84;;;4.75;100.00
36380;BME280;22411;53.016;18.632;2022-11-15T06:15:37;100731.31;;;4.77;100.00
36380;BME280;22411;53.016;18.632;2022-11-15T06:18:03;100729.66;;;4.76;100.00
36380;BME280;22411;53.016;18.632;2022-11-15T06:20:29;100727.00;;;4.77;100.00
36380;BME280;22411;53.016;18.632;2022-11-15T06:23:03;100728.00;;;4.75;100.00
36380;BME280;22411;53.016;18.632;2022-11-15T06:25:31;100724.56;;;4.74;100.00
36380;BME280;22411;53.016;18.632;2022-11-15T06:27:58;100719.41;;;4.74;100.00
36380;BME280;22411;53.016;18.632;2022-11-15T06:30:26;100726.28;;;4.73;100.00
36380;BME280;22411;53.016;18.632;2022-11-15T06:32:58;100726.28;;;4.73;100.00
36380;BME280;22411;53.016;18.632;2022-11-15T06:35:25;100730.47;;;4.76;100.00
36380;BME280;22411;53.016;18.632;2022-11-15T06:37:52;100726.03;;;4.80;100.00
36380;BME280;22411;53.016;18.632;2022-11-15T06:40:18;100729.41;;;4.82;100.00
36380;BME280;22411;53.016;18.632;2022-11-15T06:42:44;100731.13;;;4.81;100.00
36380;BME280;22411;53.016;18.632;2022-11-15T06:45:10;100736.31;;;4.80;100.00
36380;BME280;22411;53.016;18.632;2022-11-15T06:47:44;100731.97;;;4.82;100.00
36380;BME280;22411;53.016;18.632;2022-11-15T06:50:10;100735.63;;;4.76;100.00
36380;BME280;22411;53.016;18.632;2022-11-15T06:52:36;100736.28;;;4.81;100.00
36380;BME280;22411;53.016;18.632;2022-11-15T06:55:02;100736.09;;;4.86;100.00
36380;BME280;22411;53.016;18.632;2022-11-15T06:57:28;100739.53;;;4.85;100.00
36380;BME280;22411;53.016;18.632;2022-11-15T06:59:54;100741.97;;;4.88;100.00
36380;BME280;22411;53.016;18.632;2022-11-15T07:02:21;100731.88;;;4.83;100.00
36380;BME280;22411;53.016;18.632;2022-11-15T07:04:47;100745.38;;;4.88;100.00
36380;BME280;22411;53.016;18.632;2022-11-15T07:07:12;100741.34;;;4.83;100.00
36380;BME280;22411;53.016;18.632;2022-11-15T07:09:39;100745.75;;;4.79;100.00
36380;BME280;22411;53.016;18.632;2022-11-15T07:12:05;100744.16;;;4.77;100.00
36380;BME280;22411;53.016;18.632;2022-11-15T07:14:31;100745.09;;;4.74;100.00
36380;BME280;22411;53.016;18.632;2022-11-15T07:16:57;100743.44;;;4.73;100.00
36380;BME280;22411;53.016;18.632;2022-11-15T07:19:23;100743.19;;;4.79;100.00
36380;BME280;22411;53.016;18.632;2022-11-15T07:21:48;100751.69;;;4.81;100.00
36380;BME280;22411;53.016;18.632;2022-11-15T07:24:15;100746.34;;;4.86;100.00
36380;BME280;22411;53.016;18.632;2022-11-15T07:26:40;100748.75;;;4.90;100.00
36380;BME280;22411;53.016;18.632;2022-11-15T07:29:06;100744.22;;;4.95;100.00
36380;BME280;22411;53.016;18.632;2022-11-15T07:31:32;100744.03;;;5.00;100.00
36380;BME280;22411;53.016;18.632;2022-11-15T07:33:58;100749.13;;;5.02;100.00
36380;BME280;22411;53.016;18.632;2022-11-15T07:36:24;100747.50;;;4.99;100.00
36380;BME280;22411;53.016;18.632;2022-11-15T07:38:50;100745.72;;;5.01;100.00
36380;BME280;22411;53.016;18.632;2022-11-15T07:41:16;100740.63;;;4.99;100.00
36380;BME280;22411;53.016;18.632;2022-11-15T07:43:42;100744.75;;;5.04;100.00
36380;BME280;22411;53.016;18.632;2022-11-15T07:46:08;100739.69;;;5.02;100.00
36380;BME280;22411;53.016;18.632;2022-11-15T07:48:36;100729.25;;;5.05;100.00
36380;BME280;22411;53.016;18.632;2022-11-15T07:51:02;100729.22;;;5.07;100.00
36380;BME280;22411;53.016;18.632;2022-11-15T07:53:28;100724.97;;;5.06;100.00
36380;BME280;22411;53.016;18.632;2022-11-15T07:55:54;100729.22;;;5.07;100.00
36380;BME280;22411;53.016;18.632;2022-11-15T07:58:20;100740.13;;;5.12;100.00
36380;BME280;22411;53.016;18.632;2022-11-15T08:00:46;100735.00;;;5.12;100.00
36380;BME280;22411;53.016;18.632;2022-11-15T08:03:15;100732.28;;;5.15;100.00
36380;BME280;22411;53.016;18.632;2022-11-15T08:05:42;100723.66;;;5.16;100.00
36380;BME280;22411;53.016;18.632;2022-11-15T08:08:10;100723.63;;;5.17;100.00
36380;BME280;22411;53.016;18.632;2022-11-15T08:10:36;100716.59;;;5.21;100.00
36380;BME280;22411;53.016;18.632;2022-11-15T08:13:08;100714.00;;;5.22;100.00
36380;BME280;22411;53.016;18.632;2022-11-15T08:15:35;100722.53;;;5.23;100.00
36380;BME280;22411;53.016;18.632;2022-11-15T08:18:04;100718.97;;;5.25;100.00
36380;BME280;22411;53.016;18.632;2022-11-15T08:20:31;100710.16;;;5.31;100.00
36380;BME280;22411;53.016;18.632;2022-11-15T08:23:00;100716.22;;;5.30;100.00
36380;BME280;22411;53.016;18.632;2022-11-15T08:25:27;100719.63;;;5.31;100.00
36380;BME280;22411;53.016;18.632;2022-11-15T08:27:54;100717.13;;;5.29;100.00
36380;BME280;22411;53.016;18.632;2022-11-15T08:30:21;100712.19;;;5.24;100.00
36380;BME280;22411;53.016;18.632;2022-11-15T08:32:48;100708.50;;;5.30;100.00
36380;BME280;22411;53.016;18.632;2022-11-15T08:35:14;100710.31;;;5.28;100.00
36380;BME280;22411;53.016;18.632;2022-11-15T08:37:41;100708.50;;;5.30;100.00
36380;BME280;22411;53.016;18.632;2022-11-15T08:40:07;100710.13;;;5.33;100.00
36380;BME280;22411;53.016;18.632;2022-11-15T08:42:33;100703.25;;;5.33;100.00
36380;BME280;22411;53.016;18.632;2022-11-15T08:44:59;100705.00;;;5.33;100.00
36380;BME280;22411;53.016;18.632;2022-11-15T08:47:25;100705.66;;;5.36;100.00
36380;BME280;22411;53.016;18.632;2022-11-15T08:49:52;100706.31;;;5.41;100.00
36380;BME280;22411;53.016;18.632;2022-11-15T08:52:18;100711.38;;;5.43;100.00
36380;BME280;22411;53.016;18.632;2022-11-15T08:54:44;100715.69;;;5.42;100.00
36380;BME280;22411;53.016;18.632;2022-11-15T08:57:10;100703.47;;;5.47;100.00
36380;BME280;22411;53.016;18.632;2022-11-15T08:59:36;100704.28;;;5.48;100.00
36380;BME280;22411;53.016;18.632;2022-11-15T09:02:03;100702.50;;;5.50;100.00
36380;BME280;22411;53.016;18.632;2022-11-15T09:04:29;100709.09;;;5.56;100.00
36380;BME280;22411;53.016;18.632;2022-11-15T09:06:55;100703.25;;;5.52;100.00
36380;BME280;22411;53.016;18.632;2022-11-15T09:09:21;100699.94;;;5.50;100.00
36380;BME280;22411;53.016;18.632;2022-11-15T09:11:48;100692.16;;;5.51;100.00
36380;BME280;22411;53.016;18.632;2022-11-15T09:14:14;100694.59;;;5.55;100.00
36380;BME280;22411;53.016;18.632;2022-11-15T09:16:40;100698.03;;;5.54;100.00
36380;BME280;22411;53.016;18.632;2022-11-15T09:19:06;100696.88;;;5.61;100.00
36380;BME280;22411;53.016;18.632;2022-11-15T09:21:32;100701.13;;;5.62;100.00
36380;BME280;22411;53.016;18.632;2022-11-15T09:23:58;100698.66;;;5.59;100.00
36380;BME280;22411;53.016;18.632;2022-11-15T09:26:25;100687.50;;;5.60;100.00
36380;BME280;22411;53.016;18.632;2022-11-15T09:28:51;100684.16;;;5.58;100.00
36380;BME280;22411;53.016;18.632;2022-11-15T09:31:17;100680.19;;;5.50;100.00
36380;BME280;22411;53.016;18.632;2022-11-15T09:33:43;100682.63;;;5.54;100.00
36380;BME280;22411;53.016;18.632;2022-11-15T09:36:10;100677.06;;;5.44;100.00
36380;BME280;22411;53.016;18.632;2022-11-15T09:38:36;100687.56;;;5.39;100.00
36380;BME280;22411;53.016;18.632;2022-11-15T09:46:39;100680.47;;;5.63;100.00
36380;BME280;22411;53.016;18.632;2022-11-15T09:49:08;100672.56;;;5.68;100.00
36380;BME280;22411;53.016;18.632;2022-11-15T09:51:38;100676.09;;;5.65;100.00
36380;BME280;22411;53.016;18.632;2022-11-15T09:54:27;100671.56;;;5.51;100.00
36380;BME280;22411;53.016;18.632;2022-11-15T09:57:01;100661.66;;;5.44;100.00
36380;BME280;22411;53.016;18.632;2022-11-15T09:59:47;100656.31;;;5.48;100.00
36380;BME280;22411;53.016;18.632;2022-11-15T10:04:59;100650.38;;;5.65;100.00
36380;BME280;22411;53.016;18.632;2022-11-15T10:07:34;100653.50;;;5.72;100.00
36380;BME280;22411;53.016;18.632;2022-11-15T10:10:11;100648.25;;;5.75;100.00
36380;BME280;22411;53.016;18.632;2022-11-15T10:12:40;100650.44;;;5.83;100.00
36380;BME280;22411;53.016;18.632;2022-11-15T10:15:14;100649.41;;;5.87;100.00
36380;BME280;22411;53.016;18.632;2022-11-15T10:20:24;100641.56;;;5.71;100.00
36380;BME280;22411;53.016;18.632;2022-11-15T10:22:53;100634.75;;;5.70;100.00
36380;BME280;22411;53.016;18.632;2022-11-15T10:25:21;100630.78;;;5.63;100.00
36380;BME280;22411;53.016;18.632;2022-11-15T10:27:54;100630.94;;;5.60;100.00
36380;BME280;22411;53.016;18.632;2022-11-15T10:30:21;100629.13;;;5.62;100.00
36380;BME280;22411;53.016;18.632;2022-11-15T10:32:48;100635.88;;;5.64;100.00
36380;BME280;22411;53.016;18.632;2022-11-15T10:35:29;100628.63;;;5.72;100.00
36380;BME280;22411;53.016;18.632;2022-11-15T10:38:07;100632.84;;;5.73;100.00
36380;BME280;22411;53.016;18.632;2022-11-15T10:40:34;100634.97;;;5.65;100.00
36380;BME280;22411;53.016;18.632;2022-11-15T10:43:21;100632.38;;;5.65;100.00
36380;BME280;22411;53.016;18.632;2022-11-15T10:45:47;100626.41;;;5.65;100.00
36380;BME280;22411;53.016;18.632;2022-11-15T10:50:45;100632.94;;;5.72;100.00
36380;BME280;22411;53.016;18.632;2022-11-15T10:53:43;100630.78;;;5.82;100.00
36380;BME280;22411;53.016;18.632;2022-11-15T10:56:13;100629.50;;;5.90;100.00
36380;BME280;22411;53.016;18.632;2022-11-15T10:58:43;100621.59;;;5.95;100.00
36380;BME280;22411;53.016;18.632;2022-11-15T11:01:10;100621.69;;;5.93;100.00
36380;BME280;22411;53.016;18.632;2022-11-15T11:03:39;100617.22;;;5.97;100.00
36380;BME280;22411;53.016;18.632;2022-11-15T11:06:09;100622.28;;;5.98;100.00
36380;BME280;22411;53.016;18.632;2022-11-15T11:08:36;100627.34;;;6.00;100.00
36380;BME280;22411;53.016;18.632;2022-11-15T11:11:03;100621.59;;;5.95;100.00
36380;BME280;22411;53.016;18.632;2022-11-15T11:13:48;100614.22;;;5.87;100.00
36380;BME280;22411;53.016;18.632;2022-11-15T11:27:26;100603.22;;;5.84;100.00
36380;BME280;22411;53.016;18.632;2022-11-15T11:35:32;100596.44;;;5.83;100.00
36380;BME280;22411;53.016;18.632;2022-11-15T11:38:15;100590.38;;;5.84;100.00
36380;BME280;22411;53.016;18.632;2022-11-15T11:40:49;100598.00;;;5.85;100.00
36380;BME280;22411;53.016;18.632;2022-11-15T11:43:37;100593.63;;;5.87;100.00
36380;BME280;22411;53.016;18.632;2022-11-15T11:49:07;100585.38;;;5.81;100.00
36380;BME280;22411;53.016;18.632;2022-11-15T11:57:20;100583.56;;;5.83;100.00
36380;BME280;22411;53.016;18.632;2022-11-15T11:59:58;100574.03;;;5.85;100.00
36380;BME280;22411;53.016;18.632;2022-11-15T12:02:39;100569.34;;;5.75;100.00
36380;BME280;22411;53.016;18.632;2022-11-15T12:07:46;100566.19;;;5.69;100.00
36380;BME280;22411;53.016;18.632;2022-11-15T12:10:24;100559.94;;;5.74;100.00
36380;BME280;22411;53.016;18.632;2022-11-15T12:13:08;100557.09;;;5.81;100.00
36380;BME280;22411;53.016;18.632;2022-11-15T12:15:45;100559.38;;;5.87;100.00
36380;BME280;22411;53.016;18.632;2022-11-15T12:18:15;100562.59;;;5.92;100.00
36380;BME280;22411;53.016;18.632;2022-11-15T12:20:57;100565.47;;;5.84;100.00
36380;BME280;22411;53.016;18.632;2022-11-15T12:23:27;100560.63;;;5.78;100.00
36380;BME280;22411;53.016;18.632;2022-11-15T12:26:14;100557.97;;;5.80;100.00
36380;BME280;22411;53.016;18.632;2022-11-15T12:28:58;100557.94;;;5.81;100.00
36380;BME280;22411;53.016;18.632;2022-11-15T12:31:37;100560.72;;;5.76;100.00
36380;BME280;22411;53.016;18.632;2022-11-15T12:34:39;100554.94;;;5.71;100.00
36380;BME280;22411;53.016;18.632;2022-11-15T12:40:26;100552.91;;;5.78;100.00
36380;BME280;22411;53.016;18.632;2022-11-15T12:43:00;100553.81;;;5.77;100.00
36380;BME280;22411;53.016;18.632;2022-11-15T12:45:37;100548.81;;;5.74;100.00
36380;BME280;22411;53.016;18.632;2022-11-15T12:58:53;100539.53;;;5.71;100.00
36380;BME280;22411;53.016;18.632;2022-11-15T13:04:22;100542.31;;;5.67;100.00
36380;BME280;22411;53.016;18.632;2022-11-15T13:07:05;100541.41;;;5.68;100.00
36380;BME280;22411;53.016;18.632;2022-11-15T13:14:46;100542.09;;;5.71;100.00
36380;BME280;22411;53.016;18.632;2022-11-15T13:19:46;100547.31;;;5.70;100.00
36380;BME280;22411;53.016;18.632;2022-11-15T13:22:13;100546.25;;;5.74;100.00
36380;BME280;22411;53.016;18.632;2022-11-15T13:24:59;100541.09;;;5.74;100.00
36380;BME280;22411;53.016;18.632;2022-11-15T13:27:26;100533.38;;;5.74;100.00
36380;BME280;22411;53.016;18.632;2022-11-15T13:29:52;100540.28;;;5.73;100.00
36380;BME280;22411;53.016;18.632;2022-11-15T13:32:19;100531.50;;;5.77;100.00
36380;BME280;22411;53.016;18.632;2022-11-15T13:34:47;100535.91;;;5.75;100.00
36380;BME280;22411;53.016;18.632;2022-11-15T13:39:46;100528.25;;;5.74;100.00
36380;BME280;22411;53.016;18.632;2022-11-15T13:42:18;100528.19;;;5.75;100.00
36380;BME280;22411;53.016;18.632;2022-11-15T13:44:58;100534.00;;;5.79;100.00
36380;BME280;22411;53.016;18.632;2022-11-15T13:47:27;100530.81;;;5.74;100.00
36380;BME280;22411;53.016;18.632;2022-11-15T13:49:53;100535.28;;;5.70;100.00
36380;BME280;22411;53.016;18.632;2022-11-15T13:52:21;100526.56;;;5.73;100.00
36380;BME280;22411;53.016;18.632;2022-11-15T13:54:57;100530.81;;;5.74;100.00
36380;BME280;22411;53.016;18.632;2022-11-15T13:57:40;100527.56;;;5.70;100.00
36380;BME280;22411;53.016;18.632;2022-11-15T14:03:28;100523.31;;;5.69;100.00
36380;BME280;22411;53.016;18.632;2022-11-15T14:06:15;100507.88;;;5.69;100.00
36380;BME280;22411;53.016;18.632;2022-11-15T14:11:23;100508.25;;;5.62;100.00
36380;BME280;22411;53.016;18.632;2022-11-15T14:19:03;100496.63;;;5.55;100.00
36380;BME280;22411;53.016;18.632;2022-11-15T14:21:29;100503.75;;;5.48;100.00
36380;BME280;22411;53.016;18.632;2022-11-15T14:24:21;100505.66;;;5.44;100.00
36380;BME280;22411;53.016;18.632;2022-11-15T14:26:54;100496.34;;;5.42;100.00
36380;BME280;22411;53.016;18.632;2022-11-15T14:29:29;100503.09;;;5.44;100.00
36380;BME280;22411;53.016;18.632;2022-11-15T14:32:23;100504.63;;;5.48;100.00
36380;BME280;22411;53.016;18.632;2022-11-15T14:35:15;100499.47;;;5.48;100.00
36380;BME280;22411;53.016;18.632;2022-11-15T14:37:48;100503.00;;;5.46;100.00
36380;BME280;22411;53.016;18.632;2022-11-15T14:40:18;100497.88;;;5.46;100.00
36380;BME280;22411;53.016;18.632;2022-11-15T14:42:48;100496.91;;;5.48;100.00